sensor_id;sensor_type;location;lat;lon;timestamp;pressure;altitude;pressure_sealevel;temperature;humidity
75701;BME280;64321;48.796;44.740;2024-01-07T00:02:15;101569.34;;;-1.78;100.00
75701;BME280;64321;48.796;44.740;2024-01-07T00:07:18;101561.34;;;-1.61;100.00
75701;BME280;64321;48.796;44.740;2024-01-07T00:12:22;101570.00;;;-1.64;100.00
75701;BME280;64321;48.796;44.740;2024-01-07T00:17:24;101551.22;;;-1.78;100.00
75701;BME280;64321;48.796;44.740;2024-01-07T00:22:27;101550.53;;;-1.88;100.00
75701;BME280;64321;48.796;44.740;2024-01-07T00:27:30;101532.41;;;-1.88;100.00
75701;BME280;64321;48.796;44.740;2024-01-07T00:32:32;101506.47;;;-1.83;100.00
75701;BME280;64321;48.796;44.740;2024-01-07T00:37:35;101524.56;;;-1.82;100.00
75701;BME280;64321;48.796;44.740;2024-01-07T00:42:38;101509.13;;;-1.89;100.00
75701;BME280;64321;48.796;44.740;2024-01-07T00:47:41;101529.81;;;-1.86;100.00
75701;BME280;64321;48.796;44.740;2024-01-07T00:52:44;101538.38;;;-1.83;100.00
75701;BME280;64321;48.796;44.740;2024-01-07T00:57:47;101524.38;;;-1.71;100.00
75701;BME280;64321;48.796;44.740;2024-01-07T01:02:50;101510.63;;;-1.75;100.00
75701;BME280;64321;48.796;44.740;2024-01-07T01:07:53;101491.56;;;-1.70;100.00
75701;BME280;64321;48.796;44.740;2024-01-07T01:12:55;101478.56;;;-1.66;100.00
75701;BME280;64321;48.796;44.740;2024-01-07T01:17:58;101466.53;;;-1.70;100.00
75701;BME280;64321;48.796;44.740;2024-01-07T01:23:01;101440.69;;;-1.73;100.00
75701;BME280;64321;48.796;44.740;2024-01-07T01:28:04;101428.81;;;-1.83;100.00
75701;BME280;64321;48.796;44.740;2024-01-07T01:33:07;101406.34;;;-1.81;100.00
75701;BME280;64321;48.796;44.740;2024-01-07T01:38:10;101411.53;;;-1.83;100.00
75701;BME280;64321;48.796;44.740;2024-01-07T01:43:22;101395.78;;;-1.70;100.00
75701;BME280;64321;48.796;44.740;2024-01-07T01:48:26;101395.88;;;-1.77;100.00
75701;BME280;64321;48.796;44.740;2024-01-07T01:53:32;101396.88;;;-1.84;100.00
75701;BME280;64321;48.796;44.740;2024-01-07T01:58:36;101398.56;;;-1.80;100.00
75701;BME280;64321;48.796;44.740;2024-01-07T02:03:39;101412.38;;;-1.81;100.00
75701;BME280;64321;48.796;44.740;2024-01-07T02:08:42;101405.41;;;-1.79;100.00
75701;BME280;64321;48.796;44.740;2024-01-07T02:13:45;101391.44;;;-1.70;100.00
75701;BME280;64321;48.796;44.740;2024-01-07T02:18:48;101378.31;;;-1.61;100.00
75701;BME280;64321;48.796;44.740;2024-01-07T02:23:50;101366.94;;;-1.52;100.00
75701;BME280;64321;48.796;44.740;2024-01-07T02:29:12;101371.09;;;-1.44;100.00
75701;BME280;64321;48.796;44.740;2024-01-07T02:34:15;101352.00;;;-1.40;100.00
75701;BME280;64321;48.796;44.740;2024-01-07T02:39:18;101367.38;;;-1.32;100.00
75701;BME280;64321;48.796;44.740;2024-01-07T02:44:20;101351.94;;;-1.36;100.00
75701;BME280;64321;48.796;44.740;2024-01-07T02:49:23;101353.13;;;-1.11;100.00
75701;BME280;64321;48.796;44.740;2024-01-07T02:54:26;101355.66;;;-1.08;100.00
75701;BME280;64321;48.796;44.740;2024-01-07T02:59:28;101377.19;;;-1.06;100.00
75701;BME280;64321;48.796;44.740;2024-01-07T03:04:31;101386.09;;;-1.19;100.00
75701;BME280;64321;48.796;44.740;2024-01-07T03:09:34;101364.28;;;-1.08;100.00
75701;BME280;64321;48.796;44.740;2024-01-07T03:14:36;101333.69;;;-0.92;100.00
75701;BME280;64321;48.796;44.740;2024-01-07T03:19:39;101339.63;;;-0.88;100.00
75701;BME280;64321;48.796;44.740;2024-01-07T03:24:42;101333.53;;;-0.86;100.00
75701;BME280;64321;48.796;44.740;2024-01-07T03:29:45;101334.38;;;-0.85;100.00
75701;BME280;64321;48.796;44.740;2024-01-07T03:34:47;101322.53;;;-0.95;100.00
75701;BME280;64321;48.796;44.740;2024-01-07T03:39:50;101309.31;;;-0.85;100.00
75701;BME280;64321;48.796;44.740;2024-01-07T03:44:53;101309.09;;;-0.76;100.00
75701;BME280;64321;48.796;44.740;2024-01-07T03:49:55;101298.34;;;-0.60;100.00
75701;BME280;64321;48.796;44.740;2024-01-07T03:54:58;101294.94;;;-0.62;100.00
75701;BME280;64321;48.796;44.740;2024-01-07T04:00:01;101278.16;;;-0.49;100.00
75701;BME280;64321;48.796;44.740;2024-01-07T04:05:05;101271.16;;;-0.46;100.00
75701;BME280;64321;48.796;44.740;2024-01-07T04:10:08;101264.91;;;-0.37;100.00
75701;BME280;64321;48.796;44.740;2024-01-07T04:15:12;101258.81;;;-0.36;100.00
75701;BME280;64321;48.796;44.740;2024-01-07T04:20:15;101253.41;;;-0.28;100.00
75701;BME280;64321;48.796;44.740;2024-01-07T04:25:17;101238.63;;;-0.25;100.00
75701;BME280;64321;48.796;44.740;2024-01-07T04:30:20;101229.03;;;-0.23;100.00
75701;BME280;64321;48.796;44.740;2024-01-07T04:35:23;101226.91;;;-0.09;100.00
75701;BME280;64321;48.796;44.740;2024-01-07T04:40:25;101213.84;;;-0.06;100.00
75701;BME280;64321;48.796;44.740;2024-01-07T04:45:28;101213.78;;;-0.03;100.00
75701;BME280;64321;48.796;44.740;2024-01-07T04:50:31;101224.81;;;0.04;100.00
75701;BME280;64321;48.796;44.740;2024-01-07T04:55:34;101237.09;;;-0.01;100.00
75701;BME280;64321;48.796;44.740;2024-01-07T05:00:36;101227.28;;;0.09;100.00
75701;BME280;64321;48.796;44.740;2024-01-07T05:05:39;101228.91;;;0.13;100.00
75701;BME280;64321;48.796;44.740;2024-01-07T05:10:42;101238.47;;;0.11;100.00
75701;BME280;64321;48.796;44.740;2024-01-07T05:15:44;101244.47;;;0.13;100.00
75701;BME280;64321;48.796;44.740;2024-01-07T05:20:49;101234.09;;;0.13;100.00
75701;BME280;64321;48.796;44.740;2024-01-07T05:25:52;101240.09;;;0.15;100.00
75701;BME280;64321;48.796;44.740;2024-01-07T05:30:55;101235.44;;;-0.04;100.00
75701;BME280;64321;48.796;44.740;2024-01-07T05:35:57;101232.56;;;0.06;100.00
75701;BME280;64321;48.796;44.740;2024-01-07T05:41:00;101238.94;;;0.25;100.00
75701;BME280;64321;48.796;44.740;2024-01-07T05:46:03;101241.34;;;0.31;100.00
75701;BME280;64321;48.796;44.740;2024-01-07T05:51:06;101238.69;;;0.34;100.00
75701;BME280;64321;48.796;44.740;2024-01-07T05:56:09;101241.88;;;0.42;100.00
75701;BME280;64321;48.796;44.740;2024-01-07T06:01:18;101254.56;;;0.53;100.00
75701;BME280;64321;48.796;44.740;2024-01-07T06:06:21;101248.72;;;0.73;100.00
75701;BME280;64321;48.796;44.740;2024-01-07T06:11:24;101257.88;;;0.86;100.00
75701;BME280;64321;48.796;44.740;2024-01-07T06:16:27;101262.00;;;0.91;100.00
75701;BME280;64321;48.796;44.740;2024-01-07T06:21:29;101263.47;;;1.00;100.00
75701;BME280;64321;48.796;44.740;2024-01-07T06:26:32;101272.31;;;1.22;100.00
75701;BME280;64321;48.796;44.740;2024-01-07T06:31:35;101273.16;;;1.23;100.00
75701;BME280;64321;48.796;44.740;2024-01-07T06:36:38;101262.28;;;1.10;100.00
75701;BME280;64321;48.796;44.740;2024-01-07T06:41:40;101268.53;;;1.04;100.00
75701;BME280;64321;48.796;44.740;2024-01-07T06:46:43;101263.19;;;1.35;100.00
75701;BME280;64321;48.796;44.740;2024-01-07T06:51:45;101275.28;;;1.36;100.00
75701;BME280;64321;48.796;44.740;2024-01-07T06:56:48;101272.19;;;1.52;100.00
75701;BME280;64321;48.796;44.740;2024-01-07T07:01:51;101279.56;;;1.39;100.00
75701;BME280;64321;48.796;44.740;2024-01-07T07:06:54;101282.09;;;1.41;100.00
75701;BME280;64321;48.796;44.740;2024-01-07T07:11:56;101279.38;;;1.44;100.00
75701;BME280;64321;48.796;44.740;2024-01-07T07:16:59;101295.78;;;1.46;100.00
75701;BME280;64321;48.796;44.740;2024-01-07T07:22:03;101298.59;;;1.66;100.00
75701;BME280;64321;48.796;44.740;2024-01-07T07:27:06;101293.66;;;1.83;100.00
75701;BME280;64321;48.796;44.740;2024-01-07T07:32:09;101295.22;;;1.62;100.00
75701;BME280;64321;48.796;44.740;2024-01-07T07:37:12;101295.19;;;1.64;100.00
75701;BME280;64321;48.796;44.740;2024-01-07T07:42:15;101298.53;;;1.67;100.00
75701;BME280;64321;48.796;44.740;2024-01-07T07:47:18;101294.38;;;1.62;100.00
75701;BME280;64321;48.796;44.740;2024-01-07T07:52:21;101310.66;;;1.68;100.00
75701;BME280;64321;48.796;44.740;2024-01-07T07:57:27;101304.88;;;1.85;100.00
75701;BME280;64321;48.796;44.740;2024-01-07T08:02:31;101320.72;;;1.79;100.00
75701;BME280;64321;48.796;44.740;2024-01-07T08:07:33;101327.59;;;1.55;100.00
75701;BME280;64321;48.796;44.740;2024-01-07T08:12:36;101325.31;;;1.45;100.00
75701;BME280;64321;48.796;44.740;2024-01-07T08:17:39;101342.03;;;1.10;100.00
75701;BME280;64321;48.796;44.740;2024-01-07T08:22:42;101345.50;;;1.10;100.00
75701;BME280;64321;48.796;44.740;2024-01-07T08:27:44;101343.91;;;1.06;100.00
75701;BME280;64321;48.796;44.740;2024-01-07T08:32:47;101360.41;;;1.05;100.00
75701;BME280;64321;48.796;44.740;2024-01-07T08:37:50;101365.44;;;0.52;100.00
75701;BME280;64321;48.796;44.740;2024-01-07T08:42:53;101369.03;;;0.48;100.00
75701;BME280;64321;48.796;44.740;2024-01-07T08:47:56;101366.94;;;0.30;100.00
75701;BME280;64321;48.796;44.740;2024-01-07T08:52:58;101378.94;;;0.02;100.00
75701;BME280;64321;48.796;44.740;2024-01-07T08:58:05;101364.25;;;0.00;100.00
75701;BME280;64321;48.796;44.740;2024-01-07T09:03:09;101382.34;;;0.04;100.00
75701;BME280;64321;48.796;44.740;2024-01-07T09:08:12;101383.34;;;-0.01;100.00
75701;BME280;64321;48.796;44.740;2024-01-07T09:13:17;101396.31;;;-0.01;100.00
75701;BME280;64321;48.796;44.740;2024-01-07T09:18:19;101394.97;;;-0.17;100.00
75701;BME280;64321;48.796;44.740;2024-01-07T09:23:22;101406.72;;;-0.36;100.00
75701;BME280;64321;48.796;44.740;2024-01-07T09:28:25;101423.19;;;-0.37;100.00
75701;BME280;64321;48.796;44.740;2024-01-07T09:33:28;101425.25;;;-0.17;100.00
75701;BME280;64321;48.796;44.740;2024-01-07T09:38:31;101427.75;;;-0.48;100.00
75701;BME280;64321;48.796;44.740;2024-01-07T09:43:33;101423.13;;;-0.73;100.00
75701;BME280;64321;48.796;44.740;2024-01-07T09:48:38;101428.09;;;-1.03;100.00
75701;BME280;64321;48.796;44.740;2024-01-07T09:53:40;101446.09;;;-0.96;100.00
75701;BME280;64321;48.796;44.740;2024-01-07T09:58:46;101444.19;;;-0.88;100.00
75701;BME280;64321;48.796;44.740;2024-01-07T10:03:52;101451.63;;;-1.13;100.00
75701;BME280;64321;48.796;44.740;2024-01-07T10:09:16;101452.13;;;-1.38;100.00
75701;BME280;64321;48.796;44.740;2024-01-07T10:14:19;101465.16;;;-1.43;100.00
75701;BME280;64321;48.796;44.740;2024-01-07T10:19:25;101464.19;;;-1.84;100.00
75701;BME280;64321;48.796;44.740;2024-01-07T10:24:40;101473.47;;;-1.72;100.00
75701;BME280;64321;48.796;44.740;2024-01-07T10:29:46;101476.09;;;-1.75;100.00
75701;BME280;64321;48.796;44.740;2024-01-07T10:34:52;101494.56;;;-1.96;100.00
75701;BME280;64321;48.796;44.740;2024-01-07T10:39:59;101495.34;;;-1.90;100.00
75701;BME280;64321;48.796;44.740;2024-01-07T10:45:07;101512.00;;;-2.06;100.00
75701;BME280;64321;48.796;44.740;2024-01-07T10:50:11;101512.22;;;-2.20;100.00
75701;BME280;64321;48.796;44.740;2024-01-07T10:55:18;101527.63;;;-2.14;100.00
75701;BME280;64321;48.796;44.740;2024-01-07T11:00:21;101528.75;;;-2.33;100.00
75701;BME280;64321;48.796;44.740;2024-01-07T11:05:33;101546.97;;;-2.39;100.00
75701;BME280;64321;48.796;44.740;2024-01-07T11:10:44;101548.19;;;-2.04;100.00
75701;BME280;64321;48.796;44.740;2024-01-07T11:15:54;101565.44;;;-2.03;100.00
75701;BME280;64321;48.796;44.740;2024-01-07T11:21:01;101562.69;;;-1.94;100.00
75701;BME280;64321;48.796;44.740;2024-01-07T11:26:04;101570.72;;;-2.13;100.00
75701;BME280;64321;48.796;44.740;2024-01-07T11:31:07;101567.22;;;-2.08;100.00
75701;BME280;64321;48.796;44.740;2024-01-07T11:36:12;101584.72;;;-2.26;100.00
75701;BME280;64321;48.796;44.740;2024-01-07T11:41:16;101582.06;;;-2.20;100.00
75701;BME280;64321;48.796;44.740;2024-01-07T11:46:21;101595.59;;;-1.99;100.00
75701;BME280;64321;48.796;44.740;2024-01-07T11:51:29;101605.38;;;-2.23;100.00
75701;BME280;64321;48.796;44.740;2024-01-07T11:56:35;101616.69;;;-2.30;100.00
75701;BME280;64321;48.796;44.740;2024-01-07T12:01:40;101625.38;;;-2.35;100.00
75701;BME280;64321;48.796;44.740;2024-01-07T12:06:43;101627.97;;;-2.35;100.00
75701;BME280;64321;48.796;44.740;2024-01-07T12:11:46;101621.19;;;-2.46;100.00
75701;BME280;64321;48.796;44.740;2024-01-07T12:16:48;101626.38;;;-2.47;100.00
75701;BME280;64321;48.796;44.740;2024-01-07T12:22:05;101646.97;;;-2.38;100.00
75701;BME280;64321;48.796;44.740;2024-01-07T12:27:08;101660.84;;;-2.47;100.00
75701;BME280;64321;48.796;44.740;2024-01-07T12:32:11;101658.59;;;-2.75;100.00
75701;BME280;64321;48.796;44.740;2024-01-07T12:37:14;101669.88;;;-2.86;100.00
75701;BME280;64321;48.796;44.740;2024-01-07T12:42:17;101685.44;;;-2.90;100.00
75701;BME280;64321;48.796;44.740;2024-01-07T12:47:20;101683.03;;;-3.11;100.00
75701;BME280;64321;48.796;44.740;2024-01-07T12:52:23;101709.00;;;-3.30;100.00
75701;BME280;64321;48.796;44.740;2024-01-07T12:57:26;101709.97;;;-3.41;100.00
75701;BME280;64321;48.796;44.740;2024-01-07T13:02:28;101716.03;;;-3.52;100.00
75701;BME280;64321;48.796;44.740;2024-01-07T13:07:31;101712.50;;;-3.38;100.00
75701;BME280;64321;48.796;44.740;2024-01-07T13:12:34;101730.75;;;-3.60;100.00
75701;BME280;64321;48.796;44.740;2024-01-07T13:17:49;101742.72;;;-3.53;100.00
75701;BME280;64321;48.796;44.740;2024-01-07T13:22:51;101763.38;;;-3.53;100.00
75701;BME280;64321;48.796;44.740;2024-01-07T13:27:54;101741.09;;;-3.72;100.00
75701;BME280;64321;48.796;44.740;2024-01-07T13:32:57;101742.78;;;-3.59;100.00
75701;BME280;64321;48.796;44.740;2024-01-07T13:38:02;101749.59;;;-3.52;100.00
75701;BME280;64321;48.796;44.740;2024-01-07T13:43:05;101744.59;;;-3.79;100.00
75701;BME280;64321;48.796;44.740;2024-01-07T13:48:08;101760.03;;;-3.76;100.00
75701;BME280;64321;48.796;44.740;2024-01-07T13:53:11;101775.56;;;-3.82;100.00
75701;BME280;64321;48.796;44.740;2024-01-07T13:58:14;101796.22;;;-3.91;100.00
75701;BME280;64321;48.796;44.740;2024-01-07T14:03:17;101796.31;;;-4.28;100.00
75701;BME280;64321;48.796;44.740;2024-01-07T14:08:20;101779.19;;;-4.41;100.00
75701;BME280;64321;48.796;44.740;2024-01-07T14:13:22;101801.53;;;-4.37;100.00
75701;BME280;64321;48.796;44.740;2024-01-07T14:18:25;101805.84;;;-4.57;100.00
75701;BME280;64321;48.796;44.740;2024-01-07T14:23:28;101795.53;;;-4.57;100.00
75701;BME280;64321;48.796;44.740;2024-01-07T14:28:33;101797.25;;;-4.80;100.00
75701;BME280;64321;48.796;44.740;2024-01-07T14:33:36;101806.69;;;-4.85;100.00
75701;BME280;64321;48.796;44.740;2024-01-07T14:38:40;101790.38;;;-4.78;100.00
75701;BME280;64321;48.796;44.740;2024-01-07T14:43:43;101797.22;;;-4.82;100.00
75701;BME280;64321;48.796;44.740;2024-01-07T14:48:46;101815.28;;;-4.77;100.00
75701;BME280;64321;48.796;44.740;2024-01-07T14:53:48;101835.88;;;-4.83;100.00
75701;BME280;64321;48.796;44.740;2024-01-07T14:58:51;101836.75;;;-4.80;100.00
75701;BME280;64321;48.796;44.740;2024-01-07T15:03:54;101839.31;;;-4.81;100.00
75701;BME280;64321;48.796;44.740;2024-01-07T15:08:57;101822.13;;;-4.82;100.00
75701;BME280;64321;48.796;44.740;2024-01-07T15:14:00;101810.94;;;-5.01;100.00
75701;BME280;64321;48.796;44.740;2024-01-07T15:19:05;101858.19;;;-5.07;100.00
75701;BME280;64321;48.796;44.740;2024-01-07T15:24:08;101853.91;;;-4.79;100.00
75701;BME280;64321;48.796;44.740;2024-01-07T15:29:11;101894.28;;;-4.78;100.00
75701;BME280;64321;48.796;44.740;2024-01-07T15:34:14;101871.94;;;-4.93;100.00
75701;BME280;64321;48.796;44.740;2024-01-07T15:39:17;101878.78;;;-4.99;100.00
75701;BME280;64321;48.796;44.740;2024-01-07T15:44:20;101908.84;;;-4.95;100.00
75701;BME280;64321;48.796;44.740;2024-01-07T15:49:23;101909.66;;;-5.11;100.00
75701;BME280;64321;48.796;44.740;2024-01-07T15:54:25;101921.69;;;-5.09;100.00
75701;BME280;64321;48.796;44.740;2024-01-07T15:59:28;101928.56;;;-5.05;100.00
75701;BME280;64321;48.796;44.740;2024-01-07T16:04:30;101926.88;;;-4.97;100.00
75701;BME280;64321;48.796;44.740;2024-01-07T16:09:33;101938.88;;;-5.08;100.00
75701;BME280;64321;48.796;44.740;2024-01-07T16:14:38;101912.16;;;-5.31;100.00
75701;BME280;64321;48.796;44.740;2024-01-07T16:19:41;101900.13;;;-5.40;100.00
75701;BME280;64321;48.796;44.740;2024-01-07T16:24:44;101900.84;;;-5.64;100.00
75701;BME280;64321;48.796;44.740;2024-01-07T16:29:47;101919.69;;;-5.74;100.00
75701;BME280;64321;48.796;44.740;2024-01-07T16:34:49;101904.16;;;-5.89;100.00
75701;BME280;64321;48.796;44.740;2024-01-07T16:39:52;101898.16;;;-5.92;100.00
75701;BME280;64321;48.796;44.740;2024-01-07T16:44:54;101899.03;;;-5.89;100.00
75701;BME280;64321;48.796;44.740;2024-01-07T16:49:57;101893.00;;;-5.96;100.00
75701;BME280;64321;48.796;44.740;2024-01-07T16:55:04;101908.31;;;-6.12;100.00
75701;BME280;64321;48.796;44.740;2024-01-07T17:00:11;101913.41;;;-6.17;100.00
75701;BME280;64321;48.796;44.740;2024-01-07T17:05:14;101923.81;;;-6.02;100.00
75701;BME280;64321;48.796;44.740;2024-01-07T17:10:18;101944.31;;;-6.06;100.00
75701;BME280;64321;48.796;44.740;2024-01-07T17:15:20;101987.13;;;-6.13;100.00
75701;BME280;64321;48.796;44.740;2024-01-07T17:20:26;101997.38;;;-6.16;100.00
75701;BME280;64321;48.796;44.740;2024-01-07T17:25:29;102010.06;;;-6.36;100.00
75701;BME280;64321;48.796;44.740;2024-01-07T17:30:31;102030.75;;;-6.20;100.00
75701;BME280;64321;48.796;44.740;2024-01-07T17:35:34;102019.38;;;-6.47;100.00
75701;BME280;64321;48.796;44.740;2024-01-07T17:40:37;102017.91;;;-6.20;100.00
75701;BME280;64321;48.796;44.740;2024-01-07T17:45:39;102034.16;;;-6.23;100.00
75701;BME280;64321;48.796;44.740;2024-01-07T17:50:43;102036.00;;;-6.08;100.00
75701;BME280;64321;48.796;44.740;2024-01-07T17:55:50;102032.53;;;-6.16;100.00
75701;BME280;64321;48.796;44.740;2024-01-07T18:00:52;102009.31;;;-6.22;100.00
75701;BME280;64321;48.796;44.740;2024-01-07T18:05:55;102005.75;;;-6.38;100.00
75701;BME280;64321;48.796;44.740;2024-01-07T18:10:58;102025.47;;;-6.36;100.00
75701;BME280;64321;48.796;44.740;2024-01-07T18:16:05;102031.13;;;-6.69;100.00
75701;BME280;64321;48.796;44.740;2024-01-07T18:21:13;102026.13;;;-6.55;100.00
75701;BME280;64321;48.796;44.740;2024-01-07T18:26:16;102023.59;;;-6.52;100.00
75701;BME280;64321;48.796;44.740;2024-01-07T18:31:18;102049.28;;;-6.52;100.00
75701;BME280;64321;48.796;44.740;2024-01-07T18:36:22;102044.66;;;-6.79;100.00
75701;BME280;64321;48.796;44.740;2024-01-07T18:41:24;102032.59;;;-6.87;100.00
75701;BME280;64321;48.796;44.740;2024-01-07T18:46:28;102043.63;;;-6.94;100.00
75701;BME280;64321;48.796;44.740;2024-01-07T18:51:30;102045.38;;;-6.90;100.00
75701;BME280;64321;48.796;44.740;2024-01-07T18:56:36;102051.06;;;-7.13;100.00
75701;BME280;64321;48.796;44.740;2024-01-07T19:01:39;102039.19;;;-7.06;100.00
75701;BME280;64321;48.796;44.740;2024-01-07T19:06:42;102051.25;;;-7.02;100.00
75701;BME280;64321;48.796;44.740;2024-01-07T19:11:46;102036.75;;;-6.95;100.00
75701;BME280;64321;48.796;44.740;2024-01-07T19:16:49;102058.22;;;-6.92;100.00
75701;BME280;64321;48.796;44.740;2024-01-07T19:21:53;102060.00;;;-6.86;100.00
75701;BME280;64321;48.796;44.740;2024-01-07T19:26:56;102066.06;;;-6.81;100.00
75701;BME280;64321;48.796;44.740;2024-01-07T19:31:59;102069.44;;;-6.85;100.00
75701;BME280;64321;48.796;44.740;2024-01-07T19:37:02;102046.41;;;-6.76;100.00
75701;BME280;64321;48.796;44.740;2024-01-07T19:42:05;102046.47;;;-6.72;100.00
75701;BME280;64321;48.796;44.740;2024-01-07T19:47:09;102053.22;;;-6.80;100.00
75701;BME280;64321;48.796;44.740;2024-01-07T19:52:17;102051.16;;;-7.08;100.00
75701;BME280;64321;48.796;44.740;2024-01-07T19:57:20;102050.19;;;-7.15;100.00
75701;BME280;64321;48.796;44.740;2024-01-07T20:02:22;102072.66;;;-6.98;100.00
75701;BME280;64321;48.796;44.740;2024-01-07T20:07:25;102055.72;;;-6.87;100.00
75701;BME280;64321;48.796;44.740;2024-01-07T20:12:28;102088.16;;;-6.92;100.00
75701;BME280;64321;48.796;44.740;2024-01-07T20:17:30;102092.59;;;-6.81;100.00
75701;BME280;64321;48.796;44.740;2024-01-07T20:22:33;102080.59;;;-6.80;100.00
75701;BME280;64321;48.796;44.740;2024-01-07T20:27:37;102083.06;;;-6.89;100.00
75701;BME280;64321;48.796;44.740;2024-01-07T20:32:40;102067.25;;;-7.20;100.00
75701;BME280;64321;48.796;44.740;2024-01-07T20:37:43;102072.25;;;-7.29;100.00
75701;BME280;64321;48.796;44.740;2024-01-07T20:42:48;102069.56;;;-7.38;100.00
75701;BME280;64321;48.796;44.740;2024-01-07T20:47:52;102078.72;;;-7.52;100.00
75701;BME280;64321;48.796;44.740;2024-01-07T20:52:55;102079.97;;;-7.82;100.00
75701;BME280;64321;48.796;44.740;2024-01-07T20:57:57;102083.41;;;-7.80;100.00
75701;BME280;64321;48.796;44.740;2024-01-07T21:03:00;102081.34;;;-8.00;100.00
75701;BME280;64321;48.796;44.740;2024-01-07T21:08:03;102090.16;;;-7.85;100.00
75701;BME280;64321;48.796;44.740;2024-01-07T21:13:07;102091.78;;;-7.91;100.00
75701;BME280;64321;48.796;44.740;2024-01-07T21:18:10;102101.13;;;-7.93;100.00
75701;BME280;64321;48.796;44.740;2024-01-07T21:23:16;102110.31;;;-8.06;100.00
75701;BME280;64321;48.796;44.740;2024-01-07T21:28:20;102118.84;;;-8.04;100.00
75701;BME280;64321;48.796;44.740;2024-01-07T21:33:25;102111.66;;;-7.78;100.00
75701;BME280;64321;48.796;44.740;2024-01-07T21:38:28;102111.69;;;-7.75;100.00
75701;BME280;64321;48.796;44.740;2024-01-07T21:43:31;102136.28;;;-7.85;100.00
75701;BME280;64321;48.796;44.740;2024-01-07T21:48:38;102132.81;;;-8.35;100.00
75701;BME280;64321;48.796;44.740;2024-01-07T21:53:40;102135.97;;;-8.03;100.00
75701;BME280;64321;48.796;44.740;2024-01-07T21:58:43;102142.69;;;-8.10;100.00
75701;BME280;64321;48.796;44.740;2024-01-07T22:03:45;102153.22;;;-7.94;100.00
75701;BME280;64321;48.796;44.740;2024-01-07T22:08:48;102150.63;;;-7.96;100.00
75701;BME280;64321;48.796;44.740;2024-01-07T22:13:51;102151.34;;;-8.03;100.00
75701;BME280;64321;48.796;44.740;2024-01-07T22:18:53;102151.16;;;-8.14;100.00
75701;BME280;64321;48.796;44.740;2024-01-07T22:23:56;102155.31;;;-8.19;100.00
75701;BME280;64321;48.796;44.740;2024-01-07T22:28:59;102139.16;;;-8.60;100.00
75701;BME280;64321;48.796;44.740;2024-01-07T22:34:01;102158.38;;;-8.77;100.00
75701;BME280;64321;48.796;44.740;2024-01-07T22:39:06;102144.94;;;-8.68;100.00
75701;BME280;64321;48.796;44.740;2024-01-07T22:44:12;102164.03;;;-8.53;100.00
75701;BME280;64321;48.796;44.740;2024-01-07T22:49:18;102173.75;;;-8.77;100.00
75701;BME280;64321;48.796;44.740;2024-01-07T22:54:21;102172.38;;;-8.63;100.00
75701;BME280;64321;48.796;44.740;2024-01-07T22:59:23;102181.75;;;-8.63;100.00
75701;BME280;64321;48.796;44.740;2024-01-07T23:04:28;102185.78;;;-8.73;100.00
75701;BME280;64321;48.796;44.740;2024-01-07T23:09:30;102185.25;;;-8.97;100.00
75701;BME280;64321;48.796;44.740;2024-01-07T23:14:33;102196.03;;;-8.73;100.00
75701;BME280;64321;48.796;44.740;2024-01-07T23:19:36;102222.56;;;-8.69;100.00
75701;BME280;64321;48.796;44.740;2024-01-07T23:24:39;102228.59;;;-8.67;100.00
75701;BME280;64321;48.796;44.740;2024-01-07T23:29:42;102232.09;;;-8.64;100.00
75701;BME280;64321;48.796;44.740;2024-01-07T23:34:45;102225.66;;;-8.84;100.00
75701;BME280;64321;48.796;44.740;2024-01-07T23:39:47;102231.88;;;-8.73;100.00
75701;BME280;64321;48.796;44.740;2024-01-07T23:44:50;102247.13;;;-8.78;100.00
75701;BME280;64321;48.796;44.740;2024-01-07T23:49:53;102244.16;;;-8.60;100.00
75701;BME280;64321;48.796;44.740;2024-01-07T23:54:57;102255.75;;;-8.74;100.00
